createdAt,value
2018-09-22T00:00:45.536Z,14.52
2018-09-22T00:01:45.514Z,14.52
2018-09-22T00:02:45.414Z,14.55
2018-09-22T00:03:45.353Z,14.59
2018-09-22T00:04:45.290Z,14.53
2018-09-22T00:05:45.230Z,14.61
2018-09-22T00:06:45.166Z,14.53
2018-09-22T00:07:45.105Z,14.58
2018-09-22T00:08:45.044Z,14.55
2018-09-22T00:09:44.985Z,14.58
2018-09-22T00:10:44.923Z,14.55
2018-09-22T00:11:44.866Z,14.56
2018-09-22T00:12:44.799Z,14.64
2018-09-22T00:13:44.741Z,14.59
2018-09-22T00:14:44.678Z,14.53
2018-09-22T00:15:44.616Z,14.59
2018-09-22T00:16:44.554Z,14.56
2018-09-22T00:17:44.498Z,14.58
2018-09-22T00:18:44.432Z,14.56
2018-09-22T00:19:44.369Z,14.58
2018-09-22T00:20:44.309Z,14.56
2018-09-22T00:21:44.306Z,14.52
2018-09-22T00:22:44.187Z,14.55
2018-09-22T00:23:44.124Z,14.56
2018-09-22T00:24:44.064Z,14.53
2018-09-22T00:25:44.004Z,14.48
2018-09-22T00:26:43.941Z,14.46
2018-09-22T00:27:43.877Z,14.46
2018-09-22T00:28:43.817Z,14.55
2018-09-22T00:29:43.757Z,14.49
2018-09-22T00:30:43.696Z,14.51
2018-09-22T00:31:43.636Z,14.46
2018-09-22T00:32:43.572Z,14.40
2018-09-22T00:33:43.512Z,14.38
2018-09-22T00:34:43.451Z,14.46
2018-09-22T00:35:43.388Z,14.49
2018-09-22T00:36:43.327Z,14.41
2018-09-22T00:37:43.264Z,14.51
2018-09-22T00:38:43.204Z,14.52
2018-09-22T00:39:43.143Z,14.38
2018-09-22T00:40:43.080Z,14.41
2018-09-22T00:41:43.020Z,14.36
2018-09-22T00:42:42.956Z,14.36
2018-09-22T00:43:42.894Z,14.28
2018-09-22T00:44:42.835Z,14.28
2018-09-22T00:45:42.772Z,14.27
2018-09-22T00:46:42.711Z,14.28
2018-09-22T00:47:42.651Z,14.27
2018-09-22T00:48:42.589Z,14.30
2018-09-22T00:49:42.527Z,14.30
2018-09-22T00:50:42.466Z,14.27
2018-09-22T00:51:42.403Z,14.27
2018-09-22T00:52:42.342Z,14.31
2018-09-22T00:53:42.282Z,14.31
2018-09-22T00:54:42.224Z,14.33
2018-09-22T00:55:42.159Z,14.36
2018-09-22T00:56:42.098Z,14.30
2018-09-22T00:57:42.036Z,14.26
2018-09-22T00:58:41.974Z,14.31
2018-09-22T00:59:41.914Z,14.31
2018-09-22T01:00:41.854Z,14.31
2018-09-22T01:01:41.789Z,14.33
2018-09-22T01:02:41.730Z,14.28
2018-09-22T01:03:41.666Z,14.28
2018-09-22T01:04:41.605Z,14.21
2018-09-22T01:05:41.542Z,14.30
2018-09-22T01:06:41.483Z,14.30
2018-09-22T01:07:41.419Z,14.34
2018-09-22T01:08:41.366Z,14.26
2018-09-22T01:09:41.313Z,14.30
2018-09-22T01:10:41.319Z,14.30
2018-09-22T01:11:41.178Z,14.26
2018-09-22T01:12:41.159Z,14.28
2018-09-22T01:13:41.054Z,14.21
2018-09-22T01:14:40.989Z,14.23
2018-09-22T01:15:40.947Z,14.12
2018-09-22T01:16:40.873Z,14.12
2018-09-22T01:17:40.813Z,14.18
2018-09-22T01:18:40.744Z,14.18
2018-09-22T01:19:40.682Z,14.18
2018-09-22T01:20:40.620Z,14.19
2018-09-22T01:21:40.559Z,14.21
2018-09-22T01:22:40.499Z,14.16
2018-09-22T01:23:40.436Z,14.18
2018-09-22T01:24:40.375Z,14.03
2018-09-22T01:25:40.314Z,14.05
2018-09-22T01:26:40.254Z,14.01
2018-09-22T01:27:40.187Z,14.03
2018-09-22T01:28:40.131Z,14.00
2018-09-22T01:29:40.073Z,13.97
2018-09-22T01:30:40.010Z,13.97
2018-09-22T01:31:39.942Z,14.01
2018-09-22T01:32:39.890Z,13.97
2018-09-22T01:33:39.821Z,13.96
2018-09-22T01:34:39.759Z,13.96
2018-09-22T01:35:39.698Z,13.88
2018-09-22T01:36:39.636Z,14.00
2018-09-22T01:37:39.579Z,13.88
2018-09-22T01:38:39.516Z,13.88
2018-09-22T01:39:39.451Z,13.90
2018-09-22T01:40:39.389Z,13.90
2018-09-22T01:41:39.328Z,13.86
2018-09-22T01:42:39.264Z,13.91
2018-09-22T01:43:39.209Z,13.90
2018-09-22T01:44:39.145Z,13.83
2018-09-22T01:45:39.083Z,13.85
2018-09-22T01:46:39.019Z,13.85
2018-09-22T01:47:38.957Z,13.79
2018-09-22T01:48:38.898Z,13.79
2018-09-22T01:49:38.835Z,13.83
2018-09-22T01:50:38.776Z,13.83
2018-09-22T01:51:38.713Z,13.80
2018-09-22T01:52:38.653Z,13.82
2018-09-22T01:53:38.589Z,13.85
2018-09-22T01:54:38.525Z,13.82
2018-09-22T01:55:38.467Z,13.80
2018-09-22T01:56:38.455Z,13.79
2018-09-22T01:57:38.343Z,13.73
2018-09-22T01:58:38.281Z,13.73
2018-09-22T01:59:38.215Z,13.75
2018-09-22T02:00:38.161Z,13.68
2018-09-22T02:01:38.098Z,13.72
2018-09-22T02:02:38.036Z,13.78
2018-09-22T02:03:37.971Z,13.76
2018-09-22T02:04:37.911Z,13.75
2018-09-22T02:05:37.845Z,13.76
2018-09-22T02:06:37.790Z,13.79
2018-09-22T02:07:37.723Z,13.78
2018-09-22T02:08:37.663Z,13.64
2018-09-22T02:09:37.602Z,13.72
2018-09-22T02:10:37.578Z,13.68
2018-09-22T02:11:37.477Z,13.67
2018-09-22T02:12:37.417Z,13.76
2018-09-22T02:13:37.357Z,13.76
2018-09-22T02:14:37.290Z,13.76
2018-09-22T02:15:37.228Z,13.79
2018-09-22T02:16:37.166Z,13.83
2018-09-22T02:17:37.109Z,13.85
2018-09-22T02:18:37.045Z,13.79
2018-09-22T02:19:36.994Z,13.78
2018-09-22T02:20:36.923Z,13.72
2018-09-22T02:21:36.863Z,13.82
2018-09-22T02:22:36.800Z,13.79
2018-09-22T02:23:36.772Z,13.71
2018-09-22T02:24:36.681Z,13.78
2018-09-22T02:25:36.617Z,13.79
2018-09-22T02:26:36.552Z,13.71
2018-09-22T02:27:36.490Z,13.72
2018-09-22T02:28:36.428Z,13.73
2018-09-22T02:29:36.368Z,13.67
2018-09-22T02:30:36.307Z,13.76
2018-09-22T02:31:36.240Z,13.67
2018-09-22T02:32:36.183Z,13.71
2018-09-22T02:33:36.118Z,13.72
2018-09-22T02:34:36.061Z,13.65
2018-09-22T02:35:35.997Z,13.67
2018-09-22T02:36:35.935Z,13.68
2018-09-22T02:37:35.869Z,13.72
2018-09-22T02:38:35.813Z,13.64
2018-09-22T02:39:35.749Z,13.51
2018-09-22T02:40:35.688Z,13.55
2018-09-22T02:41:35.622Z,13.49
2018-09-22T02:42:35.562Z,13.55
2018-09-22T02:43:35.502Z,13.55
2018-09-22T02:44:35.439Z,13.57
2018-09-22T02:45:35.380Z,13.61
2018-09-22T02:46:35.316Z,13.54
2018-09-22T02:47:35.253Z,13.61
2018-09-22T02:48:35.191Z,13.55
2018-09-22T02:49:35.126Z,13.57
2018-09-22T02:50:35.067Z,13.55
2018-09-22T02:51:35.005Z,13.53
2018-09-22T02:52:34.949Z,13.58
2018-09-22T02:53:34.883Z,13.54
2018-09-22T02:54:34.827Z,13.57
2018-09-22T02:55:34.759Z,13.55
2018-09-22T02:56:34.702Z,13.58
2018-09-22T02:57:34.635Z,13.65
2018-09-22T02:58:34.578Z,13.72
2018-09-22T02:59:34.512Z,13.72
2018-09-22T03:00:34.464Z,13.72
2018-09-22T03:01:34.388Z,13.71
2018-09-22T03:02:34.327Z,13.61
2018-09-22T03:03:34.264Z,13.71
2018-09-22T03:04:34.208Z,13.72
2018-09-22T03:05:34.140Z,13.67
2018-09-22T03:06:34.129Z,13.64
2018-09-22T03:07:34.018Z,13.67
2018-09-22T03:08:33.989Z,13.55
2018-09-22T03:09:33.905Z,13.55
2018-09-22T03:10:33.831Z,13.61
2018-09-22T03:11:33.771Z,13.61
2018-09-22T03:12:33.708Z,13.54
2018-09-22T03:13:33.645Z,13.58
2018-09-22T03:14:33.588Z,13.54
2018-09-22T03:15:33.630Z,13.55
2018-09-22T03:16:33.461Z,13.49
2018-09-22T03:17:33.398Z,13.45
2018-09-22T03:18:33.337Z,13.40
2018-09-22T03:19:33.277Z,13.42
2018-09-22T03:20:33.220Z,13.45
2018-09-22T03:21:33.153Z,13.39
2018-09-22T03:22:33.093Z,13.42
2018-09-22T03:23:33.025Z,13.40
2018-09-22T03:24:32.970Z,13.36
2018-09-22T03:25:32.904Z,13.36
2018-09-22T03:26:32.848Z,13.42
2018-09-22T03:27:32.783Z,13.43
2018-09-22T03:28:32.719Z,13.39
2018-09-22T03:29:32.653Z,13.36
2018-09-22T03:30:32.611Z,13.39
2018-09-22T03:31:32.532Z,13.30
2018-09-22T03:32:32.482Z,13.32
2018-09-22T03:33:32.411Z,13.40
2018-09-22T03:34:32.349Z,13.45
2018-09-22T03:35:32.285Z,13.26
2018-09-22T03:36:32.223Z,13.26
2018-09-22T03:37:32.163Z,13.24
2018-09-22T03:38:32.098Z,13.21
2018-09-22T03:39:32.038Z,13.26
2018-09-22T03:40:31.974Z,13.27
2018-09-22T03:41:31.914Z,13.24
2018-09-22T03:42:31.852Z,13.24
2018-09-22T03:43:31.791Z,13.24
2018-09-22T03:44:31.728Z,13.24
2018-09-22T03:45:31.666Z,13.17
2018-09-22T03:46:31.603Z,13.26
2018-09-22T03:47:31.541Z,13.19
2018-09-22T03:48:31.480Z,13.24
2018-09-22T03:49:31.419Z,13.20
2018-09-22T03:50:31.359Z,13.17
2018-09-22T03:51:31.294Z,13.14
2018-09-22T03:52:31.233Z,13.19
2018-09-22T03:53:31.172Z,13.09
2018-09-22T03:54:31.111Z,13.21
2018-09-22T03:55:31.052Z,13.21
2018-09-22T03:56:30.985Z,13.38
2018-09-22T03:57:30.922Z,13.19
2018-09-22T03:58:30.858Z,13.24
2018-09-22T03:59:30.801Z,13.19
2018-09-22T04:00:30.758Z,13.30
2018-09-22T04:01:30.676Z,13.20
2018-09-22T04:02:30.611Z,13.24
2018-09-22T04:03:30.550Z,13.27
2018-09-22T04:04:30.488Z,13.21
2018-09-22T04:05:30.425Z,13.26
2018-09-22T04:06:30.364Z,13.27
2018-09-22T04:07:30.302Z,13.26
2018-09-22T04:08:30.239Z,13.24
2018-09-22T04:09:30.188Z,13.17
2018-09-22T04:10:30.119Z,13.17
2018-09-22T04:11:30.053Z,13.20
2018-09-22T04:12:29.993Z,13.19
2018-09-22T04:13:29.930Z,13.14
2018-09-22T04:14:29.867Z,13.14
2018-09-22T04:15:29.806Z,13.02
2018-09-22T04:16:29.748Z,13.06
2018-09-22T04:17:29.686Z,13.16
2018-09-22T04:18:29.619Z,13.04
2018-09-22T04:19:29.561Z,13.05
2018-09-22T04:20:29.493Z,13.05
2018-09-22T04:21:29.434Z,13.16
2018-09-22T04:22:29.373Z,13.19
2018-09-22T04:23:29.307Z,13.21
2018-09-22T04:24:29.248Z,13.17
2018-09-22T04:25:29.187Z,13.16
2018-09-22T04:26:29.124Z,13.11
2018-09-22T04:27:29.063Z,13.16
2018-09-22T04:28:28.999Z,13.13
2018-09-22T04:29:28.937Z,13.09
2018-09-22T04:30:28.874Z,13.02
2018-09-22T04:31:28.810Z,13.04
2018-09-22T04:32:28.749Z,13.02
2018-09-22T04:33:28.754Z,13.05
2018-09-22T04:34:28.629Z,12.99
2018-09-22T04:35:28.568Z,13.06
2018-09-22T04:36:28.504Z,12.95
2018-09-22T04:37:28.439Z,13.01
2018-09-22T04:38:28.380Z,12.93
2018-09-22T04:39:28.319Z,13.05
2018-09-22T04:40:28.259Z,12.96
2018-09-22T04:41:28.194Z,12.90
2018-09-22T04:42:28.133Z,12.96
2018-09-22T04:43:28.072Z,12.98
2018-09-22T04:44:28.007Z,12.96
2018-09-22T04:45:27.945Z,12.98
2018-09-22T04:46:27.884Z,12.95
2018-09-22T04:47:27.823Z,12.91
2018-09-22T04:48:27.755Z,12.96
2018-09-22T04:49:27.698Z,12.91
2018-09-22T04:50:27.633Z,12.95
2018-09-22T04:51:27.573Z,12.90
2018-09-22T04:52:27.511Z,12.98
2018-09-22T04:53:27.448Z,12.91
2018-09-22T04:54:27.385Z,12.95
2018-09-22T04:55:27.321Z,13.04
2018-09-22T04:56:27.263Z,12.99
2018-09-22T04:57:27.204Z,12.96
2018-09-22T04:58:27.137Z,12.99
2018-09-22T04:59:27.076Z,12.95
2018-09-22T05:00:27.015Z,12.99
2018-09-22T05:01:26.952Z,12.91
2018-09-22T05:02:26.893Z,12.98
2018-09-22T05:03:26.827Z,12.99
2018-09-22T05:04:26.765Z,13.01
2018-09-22T05:05:26.704Z,12.96
2018-09-22T05:06:26.641Z,12.90
2018-09-22T05:07:26.583Z,12.96
2018-09-22T05:08:26.517Z,12.90
2018-09-22T05:09:26.454Z,12.93
2018-09-22T05:10:26.392Z,12.93
2018-09-22T05:11:26.332Z,12.87
2018-09-22T05:12:26.269Z,12.90
2018-09-22T05:13:26.209Z,12.81
2018-09-22T05:14:26.147Z,12.81
2018-09-22T05:15:26.080Z,12.76
2018-09-22T05:16:26.017Z,12.79
2018-09-22T05:17:25.962Z,12.79
2018-09-22T05:18:25.896Z,12.80
2018-09-22T05:19:25.833Z,12.83
2018-09-22T05:20:25.772Z,12.76
2018-09-22T05:21:25.714Z,12.73
2018-09-22T05:22:25.648Z,12.76
2018-09-22T05:23:25.587Z,12.77
2018-09-22T05:24:25.523Z,12.77
2018-09-22T05:25:25.464Z,12.80
2018-09-22T05:26:25.401Z,12.81
2018-09-22T05:27:25.340Z,12.79
2018-09-22T05:28:25.276Z,12.73
2018-09-22T05:29:25.211Z,12.77
2018-09-22T05:30:25.152Z,12.80
2018-09-22T05:31:25.088Z,12.77
2018-09-22T05:32:25.027Z,12.81
2018-09-22T05:33:25.019Z,12.87
2018-09-22T05:34:24.902Z,12.88
2018-09-22T05:35:24.900Z,12.90
2018-09-22T05:36:24.779Z,12.90
2018-09-22T05:37:24.717Z,12.86
2018-09-22T05:38:24.654Z,12.96
2018-09-22T05:39:24.590Z,12.88
2018-09-22T05:40:24.530Z,12.91
2018-09-22T05:41:24.469Z,12.88
2018-09-22T05:42:24.406Z,12.91
2018-09-22T05:43:24.343Z,12.90
2018-09-22T05:44:24.279Z,12.95
2018-09-22T05:45:24.221Z,12.88
2018-09-22T05:46:24.162Z,12.90
2018-09-22T05:47:24.095Z,12.90
2018-09-22T05:48:24.034Z,12.93
2018-09-22T05:49:23.971Z,12.95
2018-09-22T05:50:23.909Z,12.79
2018-09-22T05:51:23.845Z,12.99
2018-09-22T05:52:23.784Z,12.98
2018-09-22T05:53:23.723Z,12.93
2018-09-22T05:54:23.659Z,12.98
2018-09-22T05:55:23.597Z,13.01
2018-09-22T05:56:23.536Z,12.96
2018-09-22T05:57:23.475Z,13.02
2018-09-22T05:58:23.410Z,12.99
2018-09-22T05:59:23.348Z,13.01
2018-09-22T06:00:23.288Z,12.99
2018-09-22T06:01:23.227Z,12.98
2018-09-22T06:02:23.166Z,13.01
2018-09-22T06:03:23.108Z,12.98
2018-09-22T06:04:23.038Z,12.90
2018-09-22T06:05:22.982Z,12.98
2018-09-22T06:06:22.916Z,13.05
2018-09-22T06:07:22.853Z,13.06
2018-09-22T06:08:22.793Z,13.11
2018-09-22T06:09:22.734Z,13.11
2018-09-22T06:10:22.676Z,13.09
2018-09-22T06:11:22.606Z,13.17
2018-09-22T06:12:22.543Z,13.08
2018-09-22T06:13:22.483Z,13.16
2018-09-22T06:14:22.419Z,13.24
2018-09-22T06:15:22.359Z,13.21
2018-09-22T06:16:22.298Z,13.19
2018-09-22T06:17:22.236Z,13.29
2018-09-22T06:18:22.168Z,13.16
2018-09-22T06:19:22.111Z,13.20
2018-09-22T06:20:22.047Z,13.21
2018-09-22T06:21:21.986Z,13.24
2018-09-22T06:22:21.923Z,13.20
2018-09-22T06:23:21.862Z,13.35
2018-09-22T06:24:21.846Z,13.29
2018-09-22T06:25:21.737Z,13.21
2018-09-22T06:26:21.672Z,13.23
2018-09-22T06:27:21.613Z,13.21
2018-09-22T06:28:21.551Z,13.30
2018-09-22T06:29:21.484Z,13.30
2018-09-22T06:30:21.427Z,13.23
2018-09-22T06:31:21.365Z,13.24
2018-09-22T06:32:21.301Z,13.26
2018-09-22T06:33:21.240Z,13.27
2018-09-22T06:34:21.176Z,13.38
2018-09-22T06:35:21.117Z,13.30
2018-09-22T06:36:21.059Z,13.30
2018-09-22T06:37:21.004Z,13.38
2018-09-22T06:38:20.930Z,13.42
2018-09-22T06:39:20.869Z,13.51
2018-09-22T06:40:20.807Z,13.40
2018-09-22T06:41:20.747Z,13.51
2018-09-22T06:42:20.684Z,13.49
2018-09-22T06:43:20.623Z,13.58
2018-09-22T06:44:20.560Z,13.60
2018-09-22T06:45:20.496Z,13.57
2018-09-22T06:46:20.501Z,13.61
2018-09-22T06:47:20.372Z,13.61
2018-09-22T06:48:20.313Z,13.63
2018-09-22T06:49:20.256Z,13.72
2018-09-22T06:50:20.190Z,13.65
2018-09-22T06:51:20.124Z,13.68
2018-09-22T06:52:20.062Z,13.76
2018-09-22T06:53:20.002Z,13.83
2018-09-22T06:54:19.941Z,13.83
2018-09-22T06:55:19.877Z,13.82
2018-09-22T06:56:19.814Z,13.88
2018-09-22T06:57:19.759Z,13.97
2018-09-22T06:58:19.692Z,13.98
2018-09-22T06:59:19.633Z,14.05
2018-09-22T07:00:19.570Z,14.05
2018-09-22T07:01:19.510Z,14.08
2018-09-22T07:02:19.443Z,14.03
2018-09-22T07:03:19.385Z,14.04
2018-09-22T07:04:19.323Z,14.08
2018-09-22T07:05:19.261Z,14.05
2018-09-22T07:06:19.219Z,14.12
2018-09-22T07:07:19.136Z,14.03
2018-09-22T07:08:19.077Z,14.01
2018-09-22T07:09:19.013Z,14.09
2018-09-22T07:10:18.951Z,14.19
2018-09-22T07:11:18.890Z,14.18
2018-09-22T07:12:18.829Z,14.16
2018-09-22T07:13:18.767Z,14.23
2018-09-22T07:14:18.703Z,14.21
2018-09-22T07:15:18.643Z,14.27
2018-09-22T07:16:18.583Z,14.21
2018-09-22T07:17:18.519Z,14.18
2018-09-22T07:18:18.503Z,14.21
2018-09-22T07:19:18.396Z,14.31
2018-09-22T07:20:18.335Z,14.27
2018-09-22T07:21:18.273Z,14.30
2018-09-22T07:22:18.210Z,14.31
2018-09-22T07:23:18.148Z,14.27
2018-09-22T07:24:18.088Z,14.37
2018-09-22T07:25:18.048Z,14.36
2018-09-22T07:26:17.959Z,14.38
2018-09-22T07:27:17.905Z,14.40
2018-09-22T07:28:17.842Z,14.48
2018-09-22T07:29:17.782Z,14.41
2018-09-22T07:30:17.717Z,14.37
2018-09-22T07:31:17.664Z,14.41
2018-09-22T07:32:17.597Z,14.45
2018-09-22T07:33:17.534Z,14.45
2018-09-22T07:34:17.471Z,14.53
2018-09-22T07:35:17.410Z,14.45
2018-09-22T07:36:17.357Z,14.53
2018-09-22T07:37:17.287Z,14.59
2018-09-22T07:38:17.224Z,14.63
2018-09-22T07:39:17.182Z,14.56
2018-09-22T07:40:17.104Z,14.52
2018-09-22T07:41:17.043Z,14.61
2018-09-22T07:42:16.979Z,14.74
2018-09-22T07:43:16.920Z,14.82
2018-09-22T07:44:16.859Z,14.82
2018-09-22T07:45:16.800Z,14.73
2018-09-22T07:46:16.732Z,14.92
2018-09-22T07:47:16.678Z,14.96
2018-09-22T07:48:16.611Z,14.93
2018-09-22T07:49:16.552Z,14.90
2018-09-22T07:50:16.488Z,14.97
2018-09-22T07:51:16.428Z,15.01
2018-09-22T07:52:16.368Z,15.05
2018-09-22T07:53:16.305Z,15.03
2018-09-22T07:54:16.244Z,14.92
2018-09-22T07:55:16.182Z,14.96
2018-09-22T07:56:16.123Z,14.99
2018-09-22T07:57:16.135Z,14.96
2018-09-22T07:58:16.000Z,15.11
2018-09-22T07:59:15.938Z,15.11
2018-09-22T08:00:15.900Z,15.12
2018-09-22T08:01:15.817Z,15.23
2018-09-22T08:02:15.754Z,15.30
2018-09-22T08:03:15.691Z,15.35
2018-09-22T08:04:15.630Z,15.40
2018-09-22T08:05:15.569Z,15.44
2018-09-22T08:06:15.508Z,15.41
2018-09-22T08:07:15.447Z,15.50
2018-09-22T08:08:15.388Z,15.52
2018-09-22T08:09:15.325Z,15.51
2018-09-22T08:10:15.265Z,15.47
2018-09-22T08:11:15.204Z,15.40
2018-09-22T08:12:15.144Z,15.38
2018-09-22T08:13:15.081Z,15.38
2018-09-22T08:14:15.020Z,15.41
2018-09-22T08:15:14.959Z,15.47
2018-09-22T08:16:14.897Z,15.56
2018-09-22T08:17:14.836Z,15.59
2018-09-22T08:18:14.775Z,15.52
2018-09-22T08:19:14.713Z,15.65
2018-09-22T08:20:14.654Z,15.69
2018-09-22T08:21:14.593Z,15.65
2018-09-22T08:22:14.533Z,15.69
2018-09-22T08:23:14.471Z,15.72
2018-09-22T08:24:14.410Z,15.72
2018-09-22T08:25:14.373Z,15.65
2018-09-22T08:26:14.288Z,15.65
2018-09-22T08:27:14.224Z,15.78
2018-09-22T08:28:14.166Z,15.65
2018-09-22T08:29:14.106Z,15.66
2018-09-22T08:30:14.044Z,15.68
2018-09-22T08:31:13.983Z,15.72
2018-09-22T08:32:13.926Z,15.80
2018-09-22T08:33:13.862Z,15.85
2018-09-22T08:34:13.800Z,15.88
2018-09-22T08:35:13.742Z,15.98
2018-09-22T08:36:13.778Z,15.96
2018-09-22T08:37:13.676Z,15.99
2018-09-22T08:38:13.558Z,16.02
2018-09-22T08:39:13.496Z,16.14
2018-09-22T08:40:13.437Z,16.25
2018-09-22T08:41:13.375Z,16.24
2018-09-22T08:42:13.314Z,16.16
2018-09-22T08:43:13.258Z,16.06
2018-09-22T08:44:13.196Z,16.05
2018-09-22T08:45:13.134Z,16.00
2018-09-22T08:46:13.071Z,16.02
2018-09-22T08:47:13.010Z,16.10
2018-09-22T08:48:12.950Z,16.17
2018-09-22T08:49:12.892Z,16.17
2018-09-22T08:50:12.828Z,16.29
2018-09-22T08:51:12.805Z,16.32
2018-09-22T08:52:12.708Z,16.25
2018-09-22T08:53:12.649Z,16.34
2018-09-22T08:54:12.586Z,16.33
2018-09-22T08:55:12.527Z,16.34
2018-09-22T08:56:12.465Z,16.32
2018-09-22T08:57:12.406Z,16.40
2018-09-22T08:58:12.344Z,16.47
2018-09-22T08:59:12.283Z,16.44
2018-09-22T09:00:12.223Z,16.59
2018-09-22T09:01:12.162Z,16.67
2018-09-22T09:02:12.106Z,16.61
2018-09-22T09:03:12.040Z,16.69
2018-09-22T09:04:11.981Z,16.73
2018-09-22T09:05:11.954Z,16.80
2018-09-22T09:06:11.862Z,16.83
2018-09-22T09:07:11.801Z,16.87
2018-09-22T09:08:11.736Z,16.87
2018-09-22T09:09:11.683Z,16.98
2018-09-22T09:10:11.618Z,16.94
2018-09-22T09:11:11.558Z,16.90
2018-09-22T09:12:11.499Z,16.83
2018-09-22T09:13:11.493Z,16.83
2018-09-22T09:14:11.399Z,16.77
2018-09-22T09:15:11.318Z,16.67
2018-09-22T09:16:11.262Z,16.52
2018-09-22T09:17:11.257Z,16.46
2018-09-22T09:18:11.144Z,16.43
2018-09-22T09:19:11.078Z,16.49
2018-09-22T09:20:11.016Z,16.51
2018-09-22T09:21:10.956Z,16.59
2018-09-22T09:22:10.897Z,16.61
2018-09-22T09:23:10.834Z,16.59
2018-09-22T09:24:10.774Z,16.64
2018-09-22T09:25:10.719Z,16.70
2018-09-22T09:26:10.655Z,16.87
2018-09-22T09:27:10.594Z,16.88
2018-09-22T09:28:10.539Z,16.88
2018-09-22T09:29:10.473Z,16.87
2018-09-22T09:30:10.419Z,16.72
2018-09-22T09:31:10.355Z,16.80
2018-09-22T09:32:10.294Z,16.76
2018-09-22T09:33:10.234Z,16.79
2018-09-22T09:34:10.174Z,16.88
2018-09-22T09:35:10.115Z,16.94
2018-09-22T09:36:10.058Z,17.07
2018-09-22T09:37:09.994Z,17.10
2018-09-22T09:38:09.967Z,16.97
2018-09-22T09:39:09.922Z,16.88
2018-09-22T09:40:09.888Z,16.87
2018-09-22T09:41:09.754Z,16.80
2018-09-22T09:42:09.701Z,16.80
2018-09-22T09:43:09.648Z,16.87
2018-09-22T09:44:09.571Z,16.91
2018-09-22T09:45:09.513Z,17.01
2018-09-22T09:46:09.452Z,16.99
2018-09-22T09:47:09.390Z,17.06
2018-09-22T09:48:09.330Z,17.13
2018-09-22T09:49:09.270Z,17.07
2018-09-22T09:50:09.210Z,17.06
2018-09-22T09:51:09.154Z,17.13
2018-09-22T09:52:09.092Z,17.09
2018-09-22T09:53:09.030Z,17.14
2018-09-22T09:54:08.970Z,17.10
2018-09-22T09:55:08.910Z,17.20
2018-09-22T09:56:08.851Z,17.19
2018-09-22T09:57:08.792Z,17.30
2018-09-22T09:58:08.731Z,17.27
2018-09-22T09:59:08.673Z,17.25
2018-09-22T10:00:08.615Z,17.25
2018-09-22T10:01:08.550Z,17.28
2018-09-22T10:02:08.492Z,17.32
2018-09-22T10:03:08.430Z,17.35
2018-09-22T10:04:08.371Z,17.35
2018-09-22T10:05:08.311Z,17.41
2018-09-22T10:06:08.250Z,17.39
2018-09-22T10:07:08.191Z,17.52
2018-09-22T10:08:08.132Z,17.45
2018-09-22T10:09:08.072Z,17.41
2018-09-22T10:10:08.009Z,17.52
2018-09-22T10:11:07.953Z,17.46
2018-09-22T10:12:07.891Z,17.46
2018-09-22T10:13:07.833Z,17.62
2018-09-22T10:14:07.774Z,17.63
2018-09-22T10:15:07.714Z,17.45
2018-09-22T10:16:07.652Z,17.31
2018-09-22T10:17:07.593Z,17.19
2018-09-22T10:18:07.534Z,17.13
2018-09-22T10:19:07.474Z,17.13
2018-09-22T10:20:07.444Z,17.07
2018-09-22T10:21:07.355Z,17.13
2018-09-22T10:22:07.295Z,17.17
2018-09-22T10:23:07.234Z,17.19
2018-09-22T10:24:07.173Z,17.37
2018-09-22T10:25:07.111Z,17.30
2018-09-22T10:26:07.055Z,17.39
2018-09-22T10:27:06.995Z,17.38
2018-09-22T10:28:07.000Z,17.45
2018-09-22T10:29:06.876Z,17.43
2018-09-22T10:30:06.816Z,17.38
2018-09-22T10:31:06.757Z,17.39
2018-09-22T10:32:06.697Z,17.43
2018-09-22T10:33:06.636Z,17.43
2018-09-22T10:34:06.575Z,17.45
2018-09-22T10:35:06.516Z,17.54
2018-09-22T10:36:06.459Z,17.76
2018-09-22T10:37:06.394Z,17.86
2018-09-22T10:38:06.341Z,17.79
2018-09-22T10:39:06.284Z,17.87
2018-09-22T10:40:06.216Z,17.88
2018-09-22T10:41:06.160Z,17.83
2018-09-22T10:42:06.103Z,17.69
2018-09-22T10:43:06.038Z,17.50
2018-09-22T10:44:05.979Z,17.41
2018-09-22T10:45:05.921Z,17.43
2018-09-22T10:46:05.861Z,17.35
2018-09-22T10:47:05.801Z,17.35
2018-09-22T10:48:05.742Z,17.28
2018-09-22T10:49:05.682Z,17.45
2018-09-22T10:50:05.623Z,17.46
2018-09-22T10:51:05.564Z,17.54
2018-09-22T10:52:05.504Z,17.62
2018-09-22T10:53:05.557Z,17.76
2018-09-22T10:54:05.384Z,17.73
2018-09-22T10:55:05.323Z,17.84
2018-09-22T10:56:05.265Z,17.75
2018-09-22T10:57:05.205Z,17.59
2018-09-22T10:58:05.144Z,17.66
2018-09-22T10:59:05.087Z,17.59
2018-09-22T11:00:05.025Z,17.59
2018-09-22T11:01:04.966Z,17.81
2018-09-22T11:02:04.903Z,17.78
2018-09-22T11:03:04.847Z,17.84
2018-09-22T11:04:04.790Z,17.83
2018-09-22T11:05:04.727Z,17.87
2018-09-22T11:06:04.666Z,17.86
2018-09-22T11:07:04.607Z,17.86
2018-09-22T11:08:04.547Z,17.84
2018-09-22T11:09:04.490Z,17.83
2018-09-22T11:10:04.429Z,17.76
2018-09-22T11:11:04.369Z,17.91
2018-09-22T11:12:04.310Z,17.96
2018-09-22T11:13:04.252Z,17.91
2018-09-22T11:14:04.191Z,18.05
2018-09-22T11:15:04.132Z,17.96
2018-09-22T11:16:04.070Z,17.91
2018-09-22T11:17:04.011Z,17.94
2018-09-22T11:18:03.951Z,17.91
2018-09-22T11:19:03.890Z,17.93
2018-09-22T11:20:03.832Z,17.94
2018-09-22T11:21:03.773Z,17.96
2018-09-22T11:22:03.712Z,17.93
2018-09-22T11:23:03.653Z,18.06
2018-09-22T11:24:03.591Z,18.11
2018-09-22T11:25:03.532Z,18.05
2018-09-22T11:26:03.472Z,18.15
2018-09-22T11:27:03.474Z,18.01
2018-09-22T11:28:03.357Z,17.96
2018-09-22T11:29:03.295Z,17.96
2018-09-22T11:30:03.235Z,17.94
2018-09-22T11:31:03.175Z,17.96
2018-09-22T11:32:03.116Z,18.03
2018-09-22T11:33:03.056Z,17.88
2018-09-22T11:34:03.001Z,17.75
2018-09-22T11:35:02.935Z,17.73
2018-09-22T11:36:02.875Z,17.75
2018-09-22T11:37:02.816Z,17.73
2018-09-22T11:38:02.758Z,17.68
2018-09-22T11:39:02.699Z,17.66
2018-09-22T11:40:02.636Z,17.65
2018-09-22T11:41:02.580Z,17.76
2018-09-22T11:42:02.519Z,17.71
2018-09-22T11:43:02.460Z,17.65
2018-09-22T11:44:02.398Z,17.59
2018-09-22T11:45:02.339Z,17.59
2018-09-22T11:46:02.279Z,17.71
2018-09-22T11:47:02.217Z,17.62
2018-09-22T11:48:02.159Z,17.49
2018-09-22T11:49:02.101Z,17.63
2018-09-22T11:50:02.044Z,17.62
2018-09-22T11:51:01.980Z,17.54
2018-09-22T11:52:01.920Z,17.49
2018-09-22T11:53:01.859Z,17.37
2018-09-22T11:54:01.799Z,17.34
2018-09-22T11:55:01.737Z,17.25
2018-09-22T11:56:01.823Z,17.16
2018-09-22T11:57:01.622Z,17.16
2018-09-22T11:58:01.559Z,17.10
2018-09-22T11:59:01.497Z,17.14
2018-09-22T12:00:01.441Z,17.20
2018-09-22T12:01:01.380Z,17.12
2018-09-22T12:02:01.375Z,17.19
2018-09-22T12:03:01.258Z,17.24
2018-09-22T12:04:01.198Z,17.20
2018-09-22T12:05:01.139Z,17.27
2018-09-22T12:06:01.147Z,17.27
2018-09-22T12:07:01.016Z,17.27
2018-09-22T12:08:00.955Z,17.34
2018-09-22T12:09:00.896Z,17.32
2018-09-22T12:10:00.835Z,17.38
2018-09-22T12:11:00.777Z,17.45
2018-09-22T12:12:00.717Z,17.45
2018-09-22T12:13:00.657Z,17.41
2018-09-22T12:14:00.642Z,17.49
2018-09-22T12:15:00.537Z,17.49
2018-09-22T12:16:00.477Z,17.52
2018-09-22T12:17:00.413Z,17.46
2018-09-22T12:18:00.356Z,17.50
2018-09-22T12:19:00.293Z,17.47
2018-09-22T12:20:00.233Z,17.32
2018-09-22T12:21:00.176Z,17.28
2018-09-22T12:22:00.113Z,17.35
2018-09-22T12:23:00.052Z,17.37
2018-09-22T12:23:59.996Z,17.41
2018-09-22T12:24:59.932Z,17.43
2018-09-22T12:25:59.873Z,17.54
2018-09-22T12:26:59.810Z,17.54
2018-09-22T12:27:59.752Z,17.45
2018-09-22T12:28:59.692Z,17.62
2018-09-22T12:29:59.630Z,17.57
2018-09-22T12:30:59.570Z,17.65
2018-09-22T12:31:59.579Z,17.54
2018-09-22T12:32:59.449Z,17.63
2018-09-22T12:33:59.388Z,17.76
2018-09-22T12:34:59.329Z,17.62
2018-09-22T12:35:59.270Z,17.65
2018-09-22T12:36:59.210Z,17.63
2018-09-22T12:37:59.147Z,17.68
2018-09-22T12:38:59.090Z,17.54
2018-09-22T12:39:59.029Z,17.50
2018-09-22T12:40:58.967Z,17.53
2018-09-22T12:41:58.905Z,17.63
2018-09-22T12:42:58.850Z,17.52
2018-09-22T12:43:58.792Z,17.65
2018-09-22T12:44:58.729Z,17.59
2018-09-22T12:45:58.719Z,17.68
2018-09-22T12:46:58.608Z,17.75
2018-09-22T12:47:58.547Z,17.79
2018-09-22T12:48:58.486Z,17.83
2018-09-22T12:49:58.425Z,17.75
2018-09-22T12:50:58.364Z,17.87
2018-09-22T12:51:58.304Z,17.84